Time;durP1;ratioP1;P1;durP2;ratioP2;P2;SDS_P1;SDS_P2;PMS_P1;PMS_P2;Temp;Humidity;BMP_temperature;BMP_pressure;BME280_temperature;BME280_humidity;BME280_pressure;Samples;Min_cycle;Max_cycle;Signal;HPM_P1;HPM_P2
2022/08/16 00:02:05;;;;;;;12.45;9.98;;;;;;;;;;2143584;63;21148;-79
2022/08/16 00:04:32;;;;;;;14.20;10.20;;;;;;;;;;2231304;59;21165;-77
2022/08/16 00:06:59;;;;;;;12.30;9.88;;;;;;;;;;2198582;59;21987;-78
2022/08/16 00:09:26;;;;;;;15.65;11.25;;;;;;;;;;2142813;63;21094;-77
2022/08/16 00:11:53;;;;;;;14.02;10.48;;;;;;;;;;2187193;59;21126;-76
2022/08/16 00:14:21;;;;;;;10.98;9.88;;;;;;;;;;2143119;63;21387;-78
2022/08/16 00:16:48;;;;;;;11.30;10.10;;;;;;;;;;2143190;63;21683;-76
2022/08/16 00:19:16;;;;;;;13.62;9.80;;;;;;;;;;2143073;63;21663;-79
2022/08/16 00:21:45;;;;;;;10.27;9.18;;;;;;;;;;2142923;60;21113;-77
2022/08/16 00:24:13;;;;;;;14.40;10.30;;;;;;;;;;2142745;63;21114;-78
2022/08/16 00:26:40;;;;;;;11.40;9.98;;;;;;;;;;2172884;59;21098;-76
2022/08/16 00:29:07;;;;;;;10.65;9.13;;;;;;;;;;2207461;59;21082;-77
2022/08/16 00:31:35;;;;;;;13.65;9.38;;;;;;;;;;2142553;63;21113;-79
2022/08/16 00:34:02;;;;;;;12.82;9.65;;;;;;;;;;2173958;59;21120;-78
2022/08/16 00:36:29;;;;;;;11.30;9.50;;;;;;;;;;2142689;63;21098;-78
2022/08/16 00:38:56;;;;;;;10.52;9.25;;;;;;;;;;2143309;63;21162;-76
2022/08/16 00:41:23;;;;;;;15.23;9.30;;;;;;;;;;2142991;63;21102;-78
2022/08/16 00:43:51;;;;;;;12.10;9.88;;;;;;;;;;2173506;59;21174;-77
2022/08/16 00:46:20;;;;;;;12.90;9.10;;;;;;;;;;2142285;63;21114;-77
2022/08/16 00:48:48;;;;;;;9.95;8.88;;;;;;;;;;2143169;63;21109;-79
2022/08/16 00:51:17;;;;;;;10.95;9.85;;;;;;;;;;2142812;63;21145;-78
2022/08/16 00:53:44;;;;;;;10.50;9.05;;;;;;;;;;2179230;59;21105;-78
2022/08/16 00:56:13;;;;;;;9.70;8.70;;;;;;;;;;2169989;59;21154;-77
2022/08/16 00:58:42;;;;;;;10.98;9.88;;;;;;;;;;2176561;59;21103;-78
2022/08/16 01:01:10;;;;;;;12.20;9.68;;;;;;;;;;2142250;63;21090;-76
2022/08/16 01:03:39;;;;;;;11.55;8.98;;;;;;;;;;2142950;63;21106;-77
2022/08/16 01:06:06;;;;;;;11.60;9.00;;;;;;;;;;2142512;63;21109;-77
2022/08/16 01:08:34;;;;;;;10.40;9.20;;;;;;;;;;2142897;63;21134;-77
2022/08/16 01:11:01;;;;;;;12.90;10.00;;;;;;;;;;2152104;59;21114;-78
2022/08/16 01:13:30;;;;;;;12.85;10.25;;;;;;;;;;2142681;63;21121;-79
2022/08/16 01:15:59;;;;;;;13.30;9.80;;;;;;;;;;2145689;59;21153;-77
2022/08/16 01:18:29;;;;;;;13.73;9.70;;;;;;;;;;2143525;63;21154;-78
2022/08/16 01:21:00;;;;;;;12.18;9.80;;;;;;;;;;2144183;63;21205;-77
2022/08/16 01:23:31;;;;;;;11.95;10.13;;;;;;;;;;2172613;59;21113;-78
2022/08/16 01:25:59;;;;;;;12.37;9.93;;;;;;;;;;2142991;63;21154;-78
2022/08/16 01:28:27;;;;;;;11.98;10.38;;;;;;;;;;2143422;63;21182;-78
2022/08/16 01:30:56;;;;;;;11.95;10.40;;;;;;;;;;2143707;63;21162;-76
2022/08/16 01:33:23;;;;;;;16.02;9.90;;;;;;;;;;2142797;63;21162;-78
2022/08/16 01:35:51;;;;;;;12.07;9.93;;;;;;;;;;2143821;63;21116;-79
2022/08/16 01:38:21;;;;;;;13.30;10.45;;;;;;;;;;2143645;63;21117;-77
2022/08/16 01:40:48;;;;;;;13.15;10.60;;;;;;;;;;2143654;63;21185;-77
2022/08/16 01:43:15;;;;;;;12.82;9.98;;;;;;;;;;2143641;63;21173;-76
2022/08/16 01:45:43;;;;;;;11.18;9.50;;;;;;;;;;2142500;63;21102;-77
2022/08/16 01:48:10;;;;;;;10.65;9.18;;;;;;;;;;2243253;59;21093;-78
2022/08/16 01:50:38;;;;;;;11.07;9.63;;;;;;;;;;2144147;63;21691;-76
2022/08/16 01:53:05;;;;;;;10.02;8.65;;;;;;;;;;2144272;63;21640;-76
2022/08/16 01:55:32;;;;;;;12.90;10.18;;;;;;;;;;2296884;59;21122;-76
2022/08/16 01:57:59;;;;;;;11.85;9.48;;;;;;;;;;2144595;63;21138;-76
2022/08/16 02:00:27;;;;;;;13.15;9.57;;;;;;;;;;2143692;63;21180;-76
2022/08/16 02:02:54;;;;;;;13.50;10.20;;;;;;;;;;2144111;63;21102;-76
2022/08/16 02:05:21;;;;;;;12.43;10.07;;;;;;;;;;2143733;63;21169;-76
2022/08/16 02:07:48;;;;;;;11.32;9.35;;;;;;;;;;2143854;63;21150;-76
2022/08/16 02:10:15;;;;;;;12.73;9.75;;;;;;;;;;2144236;63;21093;-77
2022/08/16 02:12:43;;;;;;;12.23;9.75;;;;;;;;;;2144407;63;21165;-76
2022/08/16 02:15:10;;;;;;;13.38;10.85;;;;;;;;;;2144304;63;21089;-76
2022/08/16 02:17:38;;;;;;;13.43;10.10;;;;;;;;;;2143692;63;21588;-77
2022/08/16 02:20:07;;;;;;;11.38;9.20;;;;;;;;;;2143538;63;21089;-76
2022/08/16 02:22:35;;;;;;;12.50;9.88;;;;;;;;;;2294769;59;21608;-77
2022/08/16 02:25:02;;;;;;;11.93;9.63;;;;;;;;;;2144274;63;21097;-79
2022/08/16 02:27:29;;;;;;;13.10;11.23;;;;;;;;;;2143563;63;21101;-76
2022/08/16 02:29:57;;;;;;;14.43;11.00;;;;;;;;;;2144270;63;21094;-76
2022/08/16 02:32:24;;;;;;;12.68;9.93;;;;;;;;;;2168746;59;21106;-76
2022/08/16 02:34:51;;;;;;;11.15;9.95;;;;;;;;;;2143215;63;21106;-77
2022/08/16 02:37:18;;;;;;;11.70;10.40;;;;;;;;;;2143326;63;21154;-76
2022/08/16 02:39:45;;;;;;;13.93;10.60;;;;;;;;;;2144105;63;21114;-78
2022/08/16 02:42:12;;;;;;;12.10;10.32;;;;;;;;;;2143494;63;21153;-77
2022/08/16 02:44:40;;;;;;;15.55;10.63;;;;;;;;;;2230766;59;21137;-79
2022/08/16 02:47:07;;;;;;;12.30;10.10;;;;;;;;;;2144240;63;21109;-78
2022/08/16 02:49:35;;;;;;;15.18;11.02;;;;;;;;;;2143876;63;21589;-77
2022/08/16 02:52:02;;;;;;;11.90;9.65;;;;;;;;;;2144195;63;21117;-79
2022/08/16 02:54:29;;;;;;;13.00;10.75;;;;;;;;;;2144247;63;21093;-77
2022/08/16 02:56:56;;;;;;;12.02;10.70;;;;;;;;;;2144009;63;21102;-77
2022/08/16 02:59:24;;;;;;;14.35;11.70;;;;;;;;;;2144359;63;21101;-77
2022/08/16 03:01:51;;;;;;;13.35;10.82;;;;;;;;;;2144401;63;21098;-76
2022/08/16 03:04:18;;;;;;;12.37;10.27;;;;;;;;;;2143647;63;21105;-76
2022/08/16 03:06:45;;;;;;;15.45;11.40;;;;;;;;;;2143099;63;21165;-77
2022/08/16 03:09:12;;;;;;;13.90;10.88;;;;;;;;;;2143237;63;21149;-76
2022/08/16 03:11:39;;;;;;;13.27;11.20;;;;;;;;;;2143136;63;21688;-77
2022/08/16 03:14:06;;;;;;;13.93;10.85;;;;;;;;;;2312115;59;21090;-76
2022/08/16 03:16:34;;;;;;;15.32;12.15;;;;;;;;;;2143650;63;21589;-77
2022/08/16 03:19:01;;;;;;;12.68;10.32;;;;;;;;;;2143572;63;21135;-77
2022/08/16 03:21:28;;;;;;;12.18;10.88;;;;;;;;;;2143642;63;21102;-78
2022/08/16 03:23:56;;;;;;;13.65;11.50;;;;;;;;;;2144116;63;21395;-79
2022/08/16 03:26:23;;;;;;;13.38;11.07;;;;;;;;;;2144322;63;21149;-76
2022/08/16 03:28:50;;;;;;;12.43;11.15;;;;;;;;;;2143053;63;21200;-77
2022/08/16 03:31:17;;;;;;;13.62;11.27;;;;;;;;;;2144076;63;21098;-77
2022/08/16 03:33:44;;;;;;;13.40;11.73;;;;;;;;;;2143313;63;21110;-78
2022/08/16 03:36:11;;;;;;;13.88;12.27;;;;;;;;;;2144226;63;21100;-78
2022/08/16 03:38:38;;;;;;;14.25;11.90;;;;;;;;;;2144614;63;21182;-78
2022/08/16 03:41:06;;;;;;;15.82;11.98;;;;;;;;;;2143628;63;21700;-77
2022/08/16 03:43:33;;;;;;;16.80;11.98;;;;;;;;;;2144453;63;21109;-77
2022/08/16 03:46:00;;;;;;;18.75;12.55;;;;;;;;;;2275743;59;21154;-78
2022/08/16 03:48:31;;;;;;;14.27;11.63;;;;;;;;;;2348127;59;21094;-79
2022/08/16 03:50:58;;;;;;;13.23;11.43;;;;;;;;;;2144144;63;21094;-77
2022/08/16 03:53:25;;;;;;;12.73;11.35;;;;;;;;;;2332072;59;21098;-78
2022/08/16 03:55:52;;;;;;;12.93;11.48;;;;;;;;;;2143256;63;21601;-78
2022/08/16 03:58:19;;;;;;;16.27;10.98;;;;;;;;;;2143975;63;22252;-77
2022/08/16 04:00:48;;;;;;;14.55;12.13;;;;;;;;;;2155088;59;21165;-77
2022/08/16 04:03:15;;;;;;;15.75;14.05;;;;;;;;;;2142924;60;21170;-77
2022/08/16 04:05:44;;;;;;;16.73;13.52;;;;;;;;;;2143267;63;21106;-77
2022/08/16 04:08:12;;;;;;;17.27;12.00;;;;;;;;;;2144405;63;21158;-77
2022/08/16 04:10:39;;;;;;;16.05;13.23;;;;;;;;;;2143632;63;21173;-78
2022/08/16 04:13:06;;;;;;;14.15;11.18;;;;;;;;;;2144084;63;21093;-77
2022/08/16 04:15:34;;;;;;;14.85;12.82;;;;;;;;;;2328300;59;21178;-77
2022/08/16 04:18:01;;;;;;;16.90;11.98;;;;;;;;;;2143739;63;21098;-76
2022/08/16 04:20:29;;;;;;;20.30;13.60;;;;;;;;;;2144407;63;21125;-78
2022/08/16 04:22:57;;;;;;;18.45;13.73;;;;;;;;;;2143946;63;21151;-78
2022/08/16 04:25:25;;;;;;;15.35;13.60;;;;;;;;;;2142969;63;21094;-77
2022/08/16 04:27:52;;;;;;;19.40;14.18;;;;;;;;;;2142890;63;21173;-78
2022/08/16 04:30:21;;;;;;;16.65;13.15;;;;;;;;;;2142593;63;21193;-77
2022/08/16 04:32:48;;;;;;;15.23;13.50;;;;;;;;;;2164318;59;21106;-77
2022/08/16 04:35:16;;;;;;;16.60;14.65;;;;;;;;;;2142917;63;21191;-77
2022/08/16 04:37:44;;;;;;;15.93;13.15;;;;;;;;;;2142513;63;21158;-77
2022/08/16 04:40:12;;;;;;;15.68;13.15;;;;;;;;;;2141669;63;21106;-78
2022/08/16 04:42:41;;;;;;;18.40;14.23;;;;;;;;;;2143979;59;21110;-77
2022/08/16 04:45:09;;;;;;;17.02;14.52;;;;;;;;;;2142316;63;21173;-77
2022/08/16 04:47:36;;;;;;;18.40;15.38;;;;;;;;;;2142742;63;21102;-76
2022/08/16 04:50:05;;;;;;;16.77;14.07;;;;;;;;;;2145228;59;21082;-76
2022/08/16 04:52:32;;;;;;;15.23;13.27;;;;;;;;;;2153121;59;21094;-77
2022/08/16 04:54:59;;;;;;;17.23;14.10;;;;;;;;;;2143374;63;21086;-76
2022/08/16 04:57:26;;;;;;;17.10;13.75;;;;;;;;;;2142473;63;21117;-77
2022/08/16 04:59:53;;;;;;;18.77;14.23;;;;;;;;;;2188851;59;21611;-76
2022/08/16 05:02:20;;;;;;;14.48;12.40;;;;;;;;;;2143726;63;21090;-77
2022/08/16 05:04:47;;;;;;;15.73;13.45;;;;;;;;;;2143990;63;21158;-76
2022/08/16 05:07:14;;;;;;;17.30;14.60;;;;;;;;;;2184118;59;21122;-76
2022/08/16 05:09:41;;;;;;;17.25;13.77;;;;;;;;;;2193505;59;21146;-77
2022/08/16 05:12:08;;;;;;;14.65;12.45;;;;;;;;;;2143904;63;21158;-78
2022/08/16 05:14:35;;;;;;;15.90;12.30;;;;;;;;;;2143672;63;21098;-76
2022/08/16 05:17:02;;;;;;;20.77;14.82;;;;;;;;;;2143859;63;21699;-76
2022/08/16 05:19:29;;;;;;;15.85;13.30;;;;;;;;;;2143941;63;21169;-77
2022/08/16 05:21:57;;;;;;;15.45;13.60;;;;;;;;;;2143492;63;21093;-78
2022/08/16 05:24:24;;;;;;;19.87;14.52;;;;;;;;;;2144031;63;21165;-77
2022/08/16 05:26:51;;;;;;;17.15;14.30;;;;;;;;;;2143474;63;21090;-76
2022/08/16 05:29:18;;;;;;;17.50;13.85;;;;;;;;;;2208454;59;21604;-78
2022/08/16 05:31:45;;;;;;;17.33;13.50;;;;;;;;;;2144165;63;21173;-77
2022/08/16 05:34:12;;;;;;;17.62;15.07;;;;;;;;;;2143128;63;21204;-77
2022/08/16 05:36:39;;;;;;;21.42;16.75;;;;;;;;;;2142622;63;21147;-76
2022/08/16 05:39:07;;;;;;;17.87;14.45;;;;;;;;;;2143020;63;21177;-78
2022/08/16 05:41:34;;;;;;;15.55;12.55;;;;;;;;;;2143254;63;21620;-78
2022/08/16 05:44:01;;;;;;;16.30;12.82;;;;;;;;;;2143840;61;21211;-77
2022/08/16 05:46:28;;;;;;;19.10;14.57;;;;;;;;;;2144105;63;21086;-77
2022/08/16 05:48:55;;;;;;;20.10;15.15;;;;;;;;;;2144301;63;21102;-78
2022/08/16 05:51:22;;;;;;;20.92;16.37;;;;;;;;;;2144770;63;21184;-76
2022/08/16 05:53:49;;;;;;;21.05;14.70;;;;;;;;;;2208336;59;21090;-77
2022/08/16 05:56:16;;;;;;;20.35;15.40;;;;;;;;;;2356018;55;21174;-80
2022/08/16 05:58:43;;;;;;;20.52;14.73;;;;;;;;;;2267757;59;21078;-80
2022/08/16 06:01:10;;;;;;;20.45;15.85;;;;;;;;;;2267162;59;22860;-80
2022/08/16 06:03:37;;;;;;;18.80;15.07;;;;;;;;;;2467661;56;21085;-82
2022/08/16 06:06:05;;;;;;;18.45;14.98;;;;;;;;;;2466522;56;21571;-80
2022/08/16 06:08:32;;;;;;;18.20;15.13;;;;;;;;;;2242615;60;21073;-83
2022/08/16 06:10:59;;;;;;;22.23;15.90;;;;;;;;;;2466926;56;21080;-79
2022/08/16 06:13:26;;;;;;;21.40;16.70;;;;;;;;;;2242197;60;21076;-78
2022/08/16 06:15:53;;;;;;;20.40;16.42;;;;;;;;;;2242136;60;21160;-80
2022/08/16 06:18:20;;;;;;;20.48;15.93;;;;;;;;;;2244052;60;21101;-82
2022/08/16 06:20:47;;;;;;;20.35;15.98;;;;;;;;;;2469644;56;21097;-81
2022/08/16 06:23:14;;;;;;;20.05;14.75;;;;;;;;;;2470553;56;21061;-82
2022/08/16 06:25:41;;;;;;;20.25;15.98;;;;;;;;;;2242629;60;21077;-81
2022/08/16 06:28:09;;;;;;;17.17;14.55;;;;;;;;;;2469691;56;21069;-80
2022/08/16 06:30:37;;;;;;;19.02;14.45;;;;;;;;;;2469814;56;21089;-82
2022/08/16 06:33:04;;;;;;;17.58;14.95;;;;;;;;;;2244080;60;21140;-81
2022/08/16 06:35:31;;;;;;;19.65;16.05;;;;;;;;;;2244760;60;21089;-81
2022/08/16 06:37:58;;;;;;;19.55;15.60;;;;;;;;;;2470168;56;21204;-79
2022/08/16 06:40:25;;;;;;;24.10;16.02;;;;;;;;;;2470282;56;21128;-83
2022/08/16 06:42:52;;;;;;;28.80;18.67;;;;;;;;;;2244691;60;21088;-79
2022/08/16 06:45:20;;;;;;;21.30;16.87;;;;;;;;;;2468256;56;21398;-78
2022/08/16 06:47:47;;;;;;;21.60;17.62;;;;;;;;;;2242679;60;21125;-81
2022/08/16 06:50:14;;;;;;;19.83;15.65;;;;;;;;;;2242434;60;21116;-82
2022/08/16 06:52:42;;;;;;;19.40;15.27;;;;;;;;;;2243555;60;21152;-80
2022/08/16 06:55:10;;;;;;;21.08;15.98;;;;;;;;;;2243497;60;21069;-79
2022/08/16 06:57:37;;;;;;;20.95;17.17;;;;;;;;;;2244050;60;21085;-82
2022/08/16 07:00:11;;;;;;;24.40;17.25;;;;;;;;;;2467178;56;21057;-79
2022/08/16 07:02:37;;;;;;;;;;;;;;;;;;2471179;56;21144;-82
2022/08/16 07:05:05;;;;;;;21.37;14.32;;;;;;;;;;2466288;56;20365;-82
2022/08/16 07:07:32;;;;;;;17.30;14.18;;;;;;;;;;2468656;56;21089;-83
2022/08/16 07:10:00;;;;;;;22.62;13.70;;;;;;;;;;2469111;56;21537;-82
2022/08/16 07:12:27;;;;;;;18.45;13.35;;;;;;;;;;2469545;56;21065;-83
2022/08/16 07:14:55;;;;;;;15.00;12.37;;;;;;;;;;2469111;56;21140;-81
2022/08/16 07:17:22;;;;;;;14.75;11.85;;;;;;;;;;2469439;56;21076;-81
2022/08/16 07:19:51;;;;;;;15.05;11.05;;;;;;;;;;2469695;56;21068;-82
2022/08/16 07:22:20;;;;;;;15.18;9.85;;;;;;;;;;2244121;60;21144;-80
2022/08/16 07:24:47;;;;;;;15.23;9.13;;;;;;;;;;2469673;56;21097;-79
2022/08/16 07:27:14;;;;;;;14.25;9.32;;;;;;;;;;2243700;60;21117;-82
2022/08/16 07:29:41;;;;;;;10.68;8.02;;;;;;;;;;2244486;60;21079;-80
2022/08/16 07:32:09;;;;;;;10.73;8.60;;;;;;;;;;2244769;60;21544;-82
2022/08/16 07:34:36;;;;;;;10.65;7.70;;;;;;;;;;2468932;56;21097;-82
2022/08/16 07:37:05;;;;;;;7.68;5.95;;;;;;;;;;2243262;60;21117;-82
2022/08/16 07:39:32;;;;;;;9.55;6.05;;;;;;;;;;2468762;56;21061;-81
2022/08/16 07:41:59;;;;;;;8.93;6.03;;;;;;;;;;2244416;60;21057;-83
2022/08/16 07:44:27;;;;;;;8.40;5.70;;;;;;;;;;2469290;56;21080;-80
2022/08/16 07:46:54;;;;;;;7.12;6.03;;;;;;;;;;2242966;60;21076;-80
2022/08/16 07:49:22;;;;;;;6.47;5.15;;;;;;;;;;2244384;60;21104;-83
2022/08/16 07:51:49;;;;;;;6.37;5.00;;;;;;;;;;2468235;56;21180;-80
2022/08/16 07:54:17;;;;;;;5.75;4.60;;;;;;;;;;2468906;56;21057;-82
2022/08/16 07:56:44;;;;;;;8.68;5.87;;;;;;;;;;2467977;56;21073;-80
2022/08/16 07:59:11;;;;;;;5.87;5.28;;;;;;;;;;2242836;60;21088;-78
2022/08/16 08:01:38;;;;;;;5.80;5.20;;;;;;;;;;2242736;60;21635;-80
2022/08/16 08:04:09;;;;;;;9.88;5.55;;;;;;;;;;2242427;60;21134;-79
2022/08/16 08:06:36;;;;;;;6.07;4.95;;;;;;;;;;2466949;56;21588;-80
2022/08/16 08:09:04;;;;;;;7.82;5.00;;;;;;;;;;2243055;60;21426;-79
2022/08/16 08:11:31;;;;;;;7.85;5.43;;;;;;;;;;2242842;60;21088;-82
2022/08/16 08:13:59;;;;;;;7.18;5.03;;;;;;;;;;2467519;56;21081;-81
2022/08/16 08:16:26;;;;;;;6.28;4.93;;;;;;;;;;2241237;60;21403;-78
2022/08/16 08:18:54;;;;;;;8.65;4.85;;;;;;;;;;2242639;60;21185;-81
2022/08/16 08:21:23;;;;;;;7.68;5.00;;;;;;;;;;2243294;60;21093;-81
2022/08/16 08:23:50;;;;;;;8.10;4.68;;;;;;;;;;2467883;56;21100;-82
2022/08/16 08:26:18;;;;;;;6.47;4.15;;;;;;;;;;2241701;60;21057;-82
2022/08/16 08:28:45;;;;;;;8.25;4.60;;;;;;;;;;2241441;60;21081;-82
2022/08/16 08:31:12;;;;;;;6.12;4.28;;;;;;;;;;2241553;60;21065;-82
2022/08/16 08:33:39;;;;;;;7.10;4.30;;;;;;;;;;2241955;60;21090;-80
2022/08/16 08:36:10;;;;;;;6.90;4.65;;;;;;;;;;2241162;60;21564;-83
2022/08/16 08:38:37;;;;;;;5.12;4.37;;;;;;;;;;2242459;60;21076;-80
2022/08/16 08:41:06;;;;;;;5.20;4.20;;;;;;;;;;2466875;56;21586;-82
2022/08/16 08:43:34;;;;;;;6.65;4.00;;;;;;;;;;2241976;60;21080;-80
2022/08/16 08:46:01;;;;;;;7.60;3.65;;;;;;;;;;2241216;60;21077;-80
2022/08/16 08:48:30;;;;;;;4.55;3.90;;;;;;;;;;2242266;60;21579;-82
2022/08/16 08:50:57;;;;;;;6.47;4.15;;;;;;;;;;2242566;60;21056;-83
2022/08/16 08:53:25;;;;;;;4.90;4.28;;;;;;;;;;2465476;56;21077;-81
2022/08/16 08:55:52;;;;;;;7.57;4.57;;;;;;;;;;2241435;60;21088;-80
2022/08/16 08:58:21;;;;;;;7.20;4.12;;;;;;;;;;2466896;56;21792;-82
2022/08/16 09:00:48;;;;;;;6.43;4.95;;;;;;;;;;2242422;60;21077;-83
2022/08/16 09:03:15;;;;;;;8.15;4.70;;;;;;;;;;2466674;56;21076;-80
2022/08/16 09:05:42;;;;;;;6.57;4.55;;;;;;;;;;2241674;60;21089;-84
2022/08/16 09:08:10;;;;;;;11.68;5.10;;;;;;;;;;2243030;60;21125;-81
2022/08/16 09:10:37;;;;;;;10.35;5.82;;;;;;;;;;2242523;60;21069;-82
2022/08/16 09:13:04;;;;;;;7.65;5.60;;;;;;;;;;2244105;60;21085;-81
2022/08/16 09:15:32;;;;;;;7.93;6.18;;;;;;;;;;2466839;56;21864;-81
2022/08/16 09:17:59;;;;;;;8.95;5.65;;;;;;;;;;2242143;60;21139;-81
2022/08/16 09:20:28;;;;;;;8.10;5.93;;;;;;;;;;2241255;60;21156;-83
2022/08/16 09:22:55;;;;;;;12.13;6.20;;;;;;;;;;2241646;60;21104;-81
2022/08/16 09:25:23;;;;;;;11.65;6.47;;;;;;;;;;2466067;56;21069;-81
2022/08/16 09:27:50;;;;;;;7.22;5.68;;;;;;;;;;2467397;56;21128;-83
2022/08/16 09:30:17;;;;;;;9.05;5.78;;;;;;;;;;2468482;56;21103;-81
2022/08/16 09:32:45;;;;;;;10.43;5.45;;;;;;;;;;2242280;60;21089;-81
2022/08/16 09:35:12;;;;;;;6.57;5.70;;;;;;;;;;2242318;60;21559;-81
2022/08/16 09:37:39;;;;;;;9.18;6.18;;;;;;;;;;2240820;60;21148;-79
2022/08/16 09:40:08;;;;;;;7.45;6.18;;;;;;;;;;2465632;56;21141;-80
2022/08/16 09:42:36;;;;;;;8.75;5.97;;;;;;;;;;2466434;56;21804;-80
2022/08/16 09:45:04;;;;;;;9.73;6.20;;;;;;;;;;2241239;60;21152;-81
2022/08/16 09:47:31;;;;;;;7.53;5.65;;;;;;;;;;2241789;60;21228;-82
2022/08/16 09:49:58;;;;;;;10.48;7.12;;;;;;;;;;2241955;60;21097;-80
2022/08/16 09:52:25;;;;;;;11.95;6.78;;;;;;;;;;2241348;60;21062;-80
2022/08/16 09:54:53;;;;;;;9.35;7.12;;;;;;;;;;2241544;60;21176;-80
2022/08/16 09:57:20;;;;;;;12.37;6.05;;;;;;;;;;2241227;60;21097;-80
2022/08/16 09:59:47;;;;;;;6.90;5.95;;;;;;;;;;2466552;56;21081;-80
2022/08/16 10:02:15;;;;;;;6.85;5.68;;;;;;;;;;2242195;60;21103;-80
2022/08/16 10:04:42;;;;;;;8.45;5.47;;;;;;;;;;2242054;60;21081;-80
2022/08/16 10:07:09;;;;;;;8.27;5.62;;;;;;;;;;2241088;60;21176;-81
2022/08/16 10:09:36;;;;;;;5.87;5.10;;;;;;;;;;2466582;56;21049;-80
2022/08/16 10:14:49;;;;;;;6.30;5.70;;;;;;;;;;2241522;60;21076;-80
2022/08/16 10:17:16;;;;;;;7.87;5.93;;;;;;;;;;2241322;60;21089;-80
2022/08/16 10:19:45;;;;;;;7.95;5.22;;;;;;;;;;2241432;60;21069;-80
2022/08/16 10:22:13;;;;;;;8.73;6.82;;;;;;;;;;2240463;60;21097;-80
2022/08/16 10:24:40;;;;;;;11.70;6.37;;;;;;;;;;2241622;60;21085;-80
2022/08/16 10:27:08;;;;;;;7.53;6.18;;;;;;;;;;2241503;60;21076;-81
2022/08/16 10:29:35;;;;;;;10.02;7.37;;;;;;;;;;2466493;56;21077;-80
2022/08/16 10:32:02;;;;;;;8.75;6.50;;;;;;;;;;2241708;60;21610;-80
2022/08/16 10:34:29;;;;;;;8.20;6.37;;;;;;;;;;2242488;60;21112;-79
2022/08/16 10:36:57;;;;;;;8.82;6.45;;;;;;;;;;2240840;60;21487;-80
2022/08/16 10:39:25;;;;;;;8.15;6.55;;;;;;;;;;2242278;60;21069;-80
2022/08/16 10:41:52;;;;;;;10.38;6.57;;;;;;;;;;2241556;60;21160;-81
2022/08/16 10:44:19;;;;;;;8.15;6.05;;;;;;;;;;2242139;60;21144;-81
2022/08/16 10:46:47;;;;;;;6.97;5.70;;;;;;;;;;2241660;60;21120;-80
2022/08/16 10:49:15;;;;;;;12.85;6.40;;;;;;;;;;2241967;60;21117;-81
2022/08/16 10:51:42;;;;;;;10.20;5.80;;;;;;;;;;2241576;60;21156;-81
2022/08/16 10:54:09;;;;;;;8.45;6.28;;;;;;;;;;2241238;60;21088;-80
2022/08/16 10:56:36;;;;;;;9.88;6.22;;;;;;;;;;2241389;60;21148;-79
2022/08/16 10:59:04;;;;;;;6.62;5.57;;;;;;;;;;2240700;60;21096;-81
2022/08/16 11:01:32;;;;;;;8.88;6.95;;;;;;;;;;2466629;56;21152;-81
2022/08/16 11:04:00;;;;;;;6.90;6.05;;;;;;;;;;2464857;56;21149;-83
2022/08/16 11:06:27;;;;;;;8.82;6.15;;;;;;;;;;2466914;56;21117;-83
2022/08/16 11:08:55;;;;;;;12.45;5.65;;;;;;;;;;2241928;60;21089;-80
2022/08/16 11:11:22;;;;;;;8.82;5.10;;;;;;;;;;2242224;60;21069;-82
2022/08/16 11:13:51;;;;;;;7.37;5.25;;;;;;;;;;2241449;60;21116;-79
2022/08/16 11:16:18;;;;;;;10.07;5.40;;;;;;;;;;2240860;60;21169;-79
2022/08/16 11:18:45;;;;;;;8.05;5.82;;;;;;;;;;2241066;60;21104;-78
2022/08/16 11:21:12;;;;;;;7.47;6.05;;;;;;;;;;2240382;60;21228;-79
2022/08/16 11:23:39;;;;;;;11.20;6.20;;;;;;;;;;2240894;60;21069;-79
2022/08/16 11:26:07;;;;;;;8.32;6.05;;;;;;;;;;2240462;60;21631;-80
2022/08/16 11:28:35;;;;;;;7.65;5.00;;;;;;;;;;2241608;60;21077;-80
2022/08/16 11:31:03;;;;;;;7.85;5.22;;;;;;;;;;2242205;60;21122;-82
2022/08/16 11:33:30;;;;;;;9.15;5.25;;;;;;;;;;2241955;60;21056;-80
2022/08/16 11:35:58;;;;;;;6.50;5.30;;;;;;;;;;2241115;60;21069;-80
2022/08/16 11:38:25;;;;;;;6.28;5.20;;;;;;;;;;2241827;60;21084;-78
2022/08/16 11:40:55;;;;;;;9.45;5.57;;;;;;;;;;2466499;56;21089;-80
2022/08/16 11:43:25;;;;;;;7.50;5.53;;;;;;;;;;2241581;60;21128;-80
2022/08/16 11:45:52;;;;;;;6.78;5.12;;;;;;;;;;2240818;60;21081;-81
2022/08/16 11:48:19;;;;;;;8.43;5.68;;;;;;;;;;2239519;60;21102;-81
2022/08/16 11:50:47;;;;;;;5.70;5.15;;;;;;;;;;2242658;60;21104;-81
2022/08/16 11:53:15;;;;;;;6.05;5.45;;;;;;;;;;2242118;60;21053;-80
2022/08/16 11:55:43;;;;;;;6.60;5.80;;;;;;;;;;2444101;55;21078;-81
2022/08/16 11:58:10;;;;;;;6.78;5.47;;;;;;;;;;2263596;59;21071;-79
2022/08/16 12:00:38;;;;;;;6.82;5.30;;;;;;;;;;2263474;59;21131;-76
2022/08/16 12:03:05;;;;;;;8.90;5.82;;;;;;;;;;2262149;59;21084;-80
2022/08/16 12:05:32;;;;;;;7.55;5.75;;;;;;;;;;2489474;55;21409;-78
2022/08/16 12:08:03;;;;;;;6.72;5.80;;;;;;;;;;2489719;55;21083;-80
2022/08/16 12:10:30;;;;;;;8.15;5.62;;;;;;;;;;2490416;55;21063;-79
2022/08/16 12:12:58;;;;;;;8.63;5.35;;;;;;;;;;2261409;59;21071;-77
2022/08/16 12:15:25;;;;;;;9.90;6.00;;;;;;;;;;2489615;55;21108;-81
2022/08/16 12:17:53;;;;;;;7.62;5.85;;;;;;;;;;2261751;59;21064;-80
2022/08/16 12:20:21;;;;;;;6.78;5.78;;;;;;;;;;2260578;59;21056;-79
2022/08/16 12:22:49;;;;;;;5.70;4.80;;;;;;;;;;2261162;59;21350;-78
2022/08/16 12:25:17;;;;;;;8.15;5.10;;;;;;;;;;2260635;59;21146;-80
2022/08/16 12:27:46;;;;;;;6.57;5.25;;;;;;;;;;2262009;59;21071;-79
2022/08/16 12:30:15;;;;;;;7.32;5.47;;;;;;;;;;2259791;59;21139;-80
2022/08/16 12:32:43;;;;;;;7.20;4.97;;;;;;;;;;2488145;55;21083;-80
2022/08/16 12:35:12;;;;;;;10.00;5.65;;;;;;;;;;2261365;59;21102;-80
2022/08/16 12:37:40;;;;;;;8.32;5.30;;;;;;;;;;2491117;55;21447;-79
2022/08/16 12:40:08;;;;;;;13.90;5.97;;;;;;;;;;2262021;59;21072;-79
2022/08/16 12:42:35;;;;;;;19.65;6.80;;;;;;;;;;2262541;59;21070;-79
2022/08/16 12:45:04;;;;;;;15.30;7.25;;;;;;;;;;2261205;59;21079;-81
2022/08/16 12:50:17;;;;;;;13.05;6.62;;;;;;;;;;2260731;59;21043;-81
2022/08/16 12:52:44;;;;;;;9.02;6.25;;;;;;;;;;2261706;59;21064;-79
2022/08/16 12:55:11;;;;;;;11.85;6.55;;;;;;;;;;2261231;59;21087;-80
2022/08/16 12:57:38;;;;;;;8.85;6.82;;;;;;;;;;2260620;59;21143;-81
2022/08/16 13:00:11;;;;;;;12.23;6.72;;;;;;;;;;2259842;59;21630;-79
2022/08/16 13:02:38;;;;;;;8.18;7.20;;;;;;;;;;2259669;59;21084;-80
2022/08/16 13:05:06;;;;;;;9.52;7.07;;;;;;;;;;2259706;59;21064;-78
2022/08/16 13:07:33;;;;;;;9.85;7.40;;;;;;;;;;2259808;59;21059;-77
2022/08/16 13:10:08;;;;;;;10.25;6.78;;;;;;;;;;2260396;59;21143;-81
2022/08/16 13:12:37;;;;;;;9.95;8.20;;;;;;;;;;2260401;59;21052;-81
2022/08/16 13:15:07;;;;;;;11.07;8.00;;;;;;;;;;2260054;59;21127;-77
2022/08/16 13:17:35;;;;;;;8.68;6.82;;;;;;;;;;2259268;59;21063;-77
2022/08/16 13:20:02;;;;;;;8.40;7.03;;;;;;;;;;2259834;59;21059;-78
2022/08/16 13:22:29;;;;;;;7.87;7.03;;;;;;;;;;2259691;59;21060;-78
2022/08/16 13:24:57;;;;;;;8.60;6.60;;;;;;;;;;2260008;59;21060;-78
2022/08/16 13:27:24;;;;;;;8.10;7.30;;;;;;;;;;2488081;55;21089;-79
2022/08/16 13:29:51;;;;;;;8.07;6.65;;;;;;;;;;2260352;59;21122;-78
2022/08/16 13:32:18;;;;;;;8.73;6.45;;;;;;;;;;2260165;59;21203;-79
2022/08/16 13:34:45;;;;;;;10.35;6.47;;;;;;;;;;2260585;59;21096;-78
2022/08/16 13:37:12;;;;;;;8.48;6.40;;;;;;;;;;2487698;55;21650;-80
2022/08/16 13:39:40;;;;;;;9.50;6.35;;;;;;;;;;2260387;59;21087;-79
2022/08/16 13:42:09;;;;;;;6.72;5.87;;;;;;;;;;2489518;55;21131;-81
2022/08/16 13:44:37;;;;;;;10.77;6.18;;;;;;;;;;2489294;55;21100;-78
2022/08/16 13:47:04;;;;;;;10.25;6.20;;;;;;;;;;2260122;59;21550;-78
2022/08/16 13:49:31;;;;;;;6.78;5.45;;;;;;;;;;2260475;59;21076;-78
2022/08/16 13:51:58;;;;;;;7.75;5.62;;;;;;;;;;2487089;55;21082;-78
2022/08/16 13:54:26;;;;;;;7.75;4.87;;;;;;;;;;2260065;59;21553;-80
2022/08/16 13:56:53;;;;;;;5.97;5.47;;;;;;;;;;2487164;55;21131;-78
2022/08/16 13:59:20;;;;;;;6.20;5.10;;;;;;;;;;2260104;59;21562;-81
2022/08/16 14:01:48;;;;;;;8.85;5.18;;;;;;;;;;2260721;59;21174;-78
2022/08/16 14:04:15;;;;;;;7.82;5.12;;;;;;;;;;2260838;59;21156;-78
2022/08/16 14:06:42;;;;;;;6.28;5.15;;;;;;;;;;2260911;59;21115;-78
2022/08/16 14:09:10;;;;;;;6.30;5.03;;;;;;;;;;2489637;55;21115;-78
2022/08/16 14:11:39;;;;;;;5.87;5.30;;;;;;;;;;2489662;55;21059;-78
2022/08/16 14:14:06;;;;;;;7.35;5.50;;;;;;;;;;2260595;59;21136;-79
2022/08/16 14:16:33;;;;;;;6.57;5.75;;;;;;;;;;2260327;59;21083;-81
2022/08/16 14:19:01;;;;;;;6.85;5.50;;;;;;;;;;2260584;59;21142;-78
2022/08/16 14:21:28;;;;;;;7.97;6.25;;;;;;;;;;2260285;59;21151;-78
2022/08/16 14:23:55;;;;;;;11.05;6.32;;;;;;;;;;2489131;55;21142;-78
2022/08/16 14:26:22;;;;;;;11.20;6.55;;;;;;;;;;2489362;55;21589;-78
2022/08/16 14:28:49;;;;;;;14.13;8.10;;;;;;;;;;2489895;55;21621;-78
2022/08/16 14:31:16;;;;;;;8.10;6.15;;;;;;;;;;2261385;59;21533;-80
2022/08/16 14:33:43;;;;;;;7.05;6.35;;;;;;;;;;2261130;59;21598;-78
2022/08/16 14:36:10;;;;;;;9.77;6.57;;;;;;;;;;2261038;59;21080;-79
2022/08/16 14:38:38;;;;;;;8.70;6.60;;;;;;;;;;2261152;59;21068;-79